Accueil
METAR-TAF:

METAR-TAF

Aéroports :

Aérodrome de Berbérati

Berbérati, République centrafricaine

latitude: 04-15N, longitude: 015-48E, altitude: 582 m

Observation

Le bulletin a été fait il y a 2 heures et 1 minutes, à 10:00 UTC
Vent 8 kt de nord
Température 30°C
Humidité 62%
Pression 1013 hPa
Visibilité 10 km ou plus
Nuages épars à une hauteur de 2500 ft
Quelques nuages à une hauteur de 4000 ft, Cumulonimbus.
orage

METAR: FEFT 191000Z 36008KT 9999 TS SCT025 FEW040CB 30/22 Q1013

Heure: 13:01 (12:01 UTC)


TAF: absent

Observations et prévisions météorologiques de plus de 4000 aéroports (messages METAR et TAF).

Les stations disponibles sont représentées par des disques jaunes et rouges sur la carte.

Passer la souris dessus pour voir le nom de la station.

Cliquer dessus pour voir les observations et prévisions météorologiques.

Pour changer de carte: cliquez sur les boutons verts avec une croix noire pour zoomer, sur le bouton vert avec un tiret pour effectuer un zoom arrière, ou sur les flèches vertes pour les cartes adjacentes.


METAR-TAF: